createdAt,value
2023-05-17T00:00:18.627Z,78.008000
2023-05-17T00:05:18.115Z,77.620833
2023-05-17T00:10:18.026Z,77.775000
2023-05-17T00:15:18.082Z,78.083333
2023-05-17T00:20:17.795Z,78.308333
2023-05-17T00:25:18.296Z,78.712500
2023-05-17T00:30:17.870Z,79.691667
2023-05-17T00:35:18.284Z,79.683333
2023-05-17T00:40:18.107Z,80.304167
2023-05-17T00:45:17.848Z,80.200000
2023-05-17T00:50:18.104Z,80.150000
2023-05-17T00:55:18.209Z,80.620833
2023-05-17T01:00:18.278Z,81.183333
2023-05-17T01:05:18.317Z,81.783333
2023-05-17T01:10:18.435Z,82.762500
2023-05-17T01:15:17.931Z,83.891667
2023-05-17T01:20:17.934Z,84.816667
2023-05-17T01:25:18.132Z,85.592000
2023-05-17T01:30:18.016Z,85.675000
2023-05-17T01:35:17.890Z,86.016667
2023-05-17T01:40:17.900Z,86.383333
2023-05-17T01:45:17.900Z,86.525000
2023-05-17T01:50:17.770Z,86.641667
2023-05-17T01:55:17.821Z,87.366667
2023-05-17T02:00:18.045Z,87.500000
2023-05-17T02:05:18.047Z,87.570833
2023-05-17T02:10:18.230Z,87.679167
2023-05-17T02:15:17.874Z,88.500000
2023-05-17T02:20:17.728Z,88.691667
2023-05-17T02:25:18.179Z,88.404167
2023-05-17T02:30:18.340Z,88.950000
2023-05-17T02:35:18.081Z,88.862500
2023-05-17T02:40:17.842Z,88.788000
2023-05-17T02:45:18.172Z,88.968000
2023-05-17T02:50:18.456Z,89.245833
2023-05-17T02:55:18.020Z,89.108333
2023-05-17T03:00:17.927Z,89.416000
2023-05-17T03:05:17.752Z,89.350000
2023-05-17T03:10:17.789Z,89.466667
2023-05-17T03:15:18.166Z,89.825000
2023-05-17T03:20:18.286Z,89.862500
2023-05-17T03:25:18.492Z,89.583333
2023-05-17T03:30:18.021Z,89.620833
2023-05-17T03:35:17.986Z,89.845833
2023-05-17T03:40:18.413Z,90.166667
2023-05-17T03:45:18.168Z,90.208333
2023-05-17T03:50:18.788Z,90.404167
2023-05-17T03:55:17.818Z,90.283333
2023-05-17T04:00:18.034Z,90.512000
2023-05-17T04:05:17.989Z,90.629167
2023-05-17T04:10:17.759Z,90.896000
2023-05-17T04:15:18.412Z,90.616667
2023-05-17T04:20:17.836Z,90.875000
2023-05-17T04:25:18.021Z,90.900000
2023-05-17T04:30:17.958Z,91.058333
2023-05-17T04:35:17.773Z,90.836000
2023-05-17T04:40:17.822Z,90.920833
2023-05-17T04:45:18.118Z,90.883333
2023-05-17T04:50:17.928Z,90.816667
2023-05-17T04:55:17.830Z,90.800000
2023-05-17T05:00:18.010Z,91.312500
2023-05-17T05:05:17.899Z,90.425000
2023-05-17T05:10:17.883Z,89.600000
2023-05-17T05:15:17.786Z,88.212500
2023-05-17T05:20:18.071Z,85.666667
2023-05-17T05:25:18.013Z,84.479167
2023-05-17T05:30:18.038Z,83.966667
2023-05-17T05:35:17.985Z,83.512500
2023-05-17T05:40:18.148Z,83.358333
2023-05-17T05:45:17.858Z,83.195833
2023-05-17T05:50:18.721Z,83.116667
2023-05-17T05:55:18.003Z,82.966667
2023-05-17T06:00:18.183Z,82.896000
2023-05-17T06:05:18.470Z,83.020833
2023-05-17T06:10:17.921Z,82.875000
2023-05-17T06:15:18.039Z,82.600000
2023-05-17T06:20:17.803Z,82.708333
2023-05-17T06:25:18.041Z,82.912500
2023-05-17T06:30:17.992Z,82.450000
2023-05-17T06:35:17.687Z,82.408333
2023-05-17T06:40:17.964Z,82.454167
2023-05-17T06:45:18.025Z,82.358333
2023-05-17T06:50:17.738Z,82.150000
2023-05-17T06:55:18.144Z,82.070833
2023-05-17T07:00:17.876Z,82.116667
2023-05-17T07:05:17.873Z,81.933333
2023-05-17T07:10:17.878Z,81.875000
2023-05-17T07:15:18.017Z,81.641667
2023-05-17T07:20:17.676Z,78.675000
2023-05-17T07:25:18.535Z,77.680000
2023-05-17T07:30:17.864Z,78.370833
2023-05-17T07:35:19.188Z,77.958333
2023-05-17T07:40:17.965Z,78.100000
2023-05-17T07:45:17.847Z,78.512500
2023-05-17T07:50:17.830Z,77.529167
2023-05-17T07:55:18.037Z,74.475000
2023-05-17T08:00:18.234Z,73.875000
2023-05-17T08:05:17.679Z,74.395833
2023-05-17T08:10:18.385Z,72.550000
2023-05-17T08:15:17.675Z,70.708333
2023-05-17T08:20:18.180Z,67.479167
2023-05-17T08:25:17.986Z,65.829167
2023-05-17T08:30:28.159Z,65.733333
2023-05-17T08:35:17.860Z,66.379167
2023-05-17T08:40:17.748Z,68.000000
2023-05-17T08:45:17.736Z,66.450000
2023-05-17T08:50:17.719Z,65.329167
2023-05-17T08:55:17.817Z,65.779167
2023-05-17T09:00:17.726Z,66.925000
2023-05-17T09:05:17.667Z,65.166667
2023-05-17T09:10:17.800Z,61.745833
2023-05-17T09:15:17.644Z,63.500000
2023-05-17T09:20:17.761Z,63.766667
2023-05-17T09:25:17.887Z,62.468000
2023-05-17T09:30:17.741Z,62.168000
2023-05-17T09:35:17.755Z,62.641667
2023-05-17T09:40:17.618Z,63.570833
2023-05-17T09:45:17.988Z,62.154167
2023-05-17T09:50:17.780Z,61.795833
2023-05-17T09:55:17.908Z,62.566667
2023-05-17T10:00:17.971Z,62.229167
2023-05-17T10:05:18.060Z,61.200000
2023-05-17T10:10:17.603Z,60.954167
2023-05-17T10:15:17.929Z,61.375000
2023-05-17T10:20:17.918Z,60.875000
2023-05-17T10:25:17.602Z,60.383333
2023-05-17T10:30:17.694Z,61.366667
2023-05-17T10:35:17.794Z,61.041667
2023-05-17T10:40:18.071Z,61.054167
2023-05-17T10:45:18.257Z,60.941667
2023-05-17T10:50:18.175Z,59.862500
2023-05-17T10:55:17.842Z,57.658333
2023-05-17T11:00:18.397Z,58.283333
2023-05-17T11:05:17.872Z,60.283333
2023-05-17T11:10:17.983Z,58.908333
2023-05-17T11:15:17.816Z,56.348000
2023-05-17T11:20:17.752Z,56.425000
2023-05-17T11:25:18.199Z,57.112500
2023-05-17T11:30:17.686Z,59.350000
2023-05-17T11:35:17.761Z,58.400000
2023-05-17T11:40:17.671Z,58.408333
2023-05-17T11:45:18.362Z,58.158333
2023-05-17T11:50:17.846Z,58.758333
2023-05-17T11:55:17.614Z,57.883333
2023-05-17T12:00:17.711Z,57.525000
2023-05-17T12:05:18.039Z,57.437500
2023-05-17T12:10:17.649Z,56.666667
2023-05-17T12:15:17.983Z,53.945833
2023-05-17T12:20:17.751Z,54.558333
2023-05-17T12:25:17.818Z,55.364000
2023-05-17T12:30:17.696Z,56.033333
2023-05-17T12:35:17.819Z,56.154167
2023-05-17T12:40:17.569Z,55.891667
2023-05-17T12:45:17.542Z,55.833333
2023-05-17T12:50:17.855Z,55.012500
2023-05-17T12:55:17.591Z,53.279167
2023-05-17T13:00:17.955Z,54.625000
2023-05-17T13:05:17.717Z,52.645833
2023-05-17T13:10:17.502Z,54.760000
2023-05-17T13:15:17.658Z,53.379167
2023-05-17T13:20:18.287Z,53.083333
2023-05-17T13:25:17.796Z,53.633333
2023-05-17T13:30:18.160Z,54.566667
2023-05-17T13:35:17.926Z,53.329167
2023-05-17T13:40:17.846Z,53.591667
2023-05-17T13:45:17.737Z,55.236000
2023-05-17T13:50:17.628Z,54.466667
2023-05-17T13:55:17.731Z,52.048000
2023-05-17T14:00:17.827Z,51.329167
2023-05-17T14:05:17.582Z,52.066667
2023-05-17T14:10:17.586Z,51.866667
2023-05-17T14:15:17.984Z,52.000000
2023-05-17T14:20:17.552Z,51.441667
2023-05-17T14:25:17.841Z,51.733333
2023-05-17T14:30:17.568Z,50.916667
2023-05-17T14:35:17.742Z,51.279167
2023-05-17T14:40:17.805Z,53.029167
2023-05-17T14:45:17.566Z,52.758333
2023-05-17T14:50:17.688Z,50.729167
2023-05-17T14:55:17.615Z,50.479167
2023-05-17T15:00:17.584Z,51.966667
2023-05-17T15:05:17.736Z,51.175000
2023-05-17T15:10:17.598Z,50.150000
2023-05-17T15:15:17.564Z,49.995833
2023-05-17T15:20:17.547Z,50.758333
2023-05-17T15:25:18.220Z,51.483333
2023-05-17T15:30:18.078Z,50.975000
2023-05-17T15:35:17.568Z,49.866667
2023-05-17T15:40:17.499Z,49.279167
2023-05-17T15:45:17.851Z,50.241667
2023-05-17T15:50:17.676Z,50.645833
2023-05-17T15:55:17.447Z,49.883333
2023-05-17T16:00:17.817Z,49.766667
2023-05-17T16:05:18.173Z,51.029167
2023-05-17T16:10:17.949Z,49.766667
2023-05-17T16:15:17.650Z,50.341667
2023-05-17T16:20:17.820Z,49.950000
2023-05-17T16:25:18.024Z,50.162500
2023-05-17T16:30:17.795Z,50.179167
2023-05-17T16:35:20.004Z,50.991667
2023-05-17T16:40:17.543Z,50.737500
2023-05-17T16:45:17.680Z,49.700000
2023-05-17T16:50:17.635Z,49.704167
2023-05-17T16:55:17.839Z,49.766667
2023-05-17T17:00:17.546Z,50.254167
2023-05-17T17:05:17.596Z,50.840000
2023-05-17T17:10:17.606Z,51.787500
2023-05-17T17:15:17.872Z,50.954167
2023-05-17T17:20:17.490Z,50.900000
2023-05-17T17:25:17.840Z,51.258333
2023-05-17T17:30:17.637Z,52.987500
2023-05-17T17:35:17.494Z,53.183333
2023-05-17T17:40:17.575Z,52.175000
2023-05-17T17:45:17.534Z,52.500000
2023-05-17T17:50:17.781Z,53.137500
2023-05-17T17:55:17.495Z,53.636000
2023-05-17T18:00:17.443Z,53.725000
2023-05-17T18:05:17.672Z,54.087500
2023-05-17T18:10:17.492Z,54.858333
2023-05-17T18:15:17.513Z,57.179167
2023-05-17T18:20:18.151Z,58.387500
2023-05-17T18:25:17.820Z,58.650000
2023-05-17T18:30:17.941Z,59.908333
2023-05-17T18:35:18.584Z,61.854167
2023-05-17T18:40:17.588Z,63.412500
2023-05-17T18:45:17.905Z,64.472000
2023-05-17T18:50:17.523Z,64.312000
2023-05-17T18:55:17.402Z,68.721053
2023-05-17T19:00:18.029Z,70.140000
2023-05-17T19:05:17.501Z,72.941667
2023-05-17T19:10:17.561Z,74.760000
2023-05-17T19:15:17.465Z,76.433333
2023-05-17T19:20:17.620Z,77.316667
2023-05-17T19:25:19.079Z,79.270833
2023-05-17T19:30:17.528Z,80.550000
2023-05-17T19:35:17.577Z,81.516667
2023-05-17T19:40:17.566Z,82.362500
2023-05-17T19:45:17.533Z,83.291667
2023-05-17T19:50:17.559Z,83.400000
2023-05-17T19:55:17.427Z,83.987500
2023-05-17T20:00:17.580Z,84.733333
2023-05-17T20:05:17.592Z,85.254167
2023-05-17T20:10:17.827Z,85.462500
2023-05-17T20:15:17.499Z,85.604000
2023-05-17T20:20:17.345Z,86.216667
2023-05-17T20:25:17.871Z,86.191667
2023-05-17T20:30:17.534Z,86.216667
2023-05-17T20:35:17.706Z,86.112500
2023-05-17T20:40:17.817Z,85.812500
2023-05-17T20:45:17.643Z,85.933333
2023-05-17T20:50:20.160Z,86.029167
2023-05-17T20:55:18.199Z,86.579167
2023-05-17T21:00:17.642Z,86.645833
2023-05-17T21:05:17.488Z,86.791667
2023-05-17T21:10:17.292Z,86.879167
2023-05-17T21:15:17.604Z,86.550000
2023-05-17T21:20:17.572Z,86.204000
2023-05-17T21:25:17.887Z,85.683333
2023-05-17T21:30:17.586Z,86.233333
2023-05-17T21:35:17.306Z,86.350000
2023-05-17T21:40:17.686Z,86.858333
2023-05-17T21:45:17.364Z,86.879167
2023-05-17T21:50:17.361Z,86.833333
2023-05-17T21:55:17.433Z,87.108000
2023-05-17T22:00:17.288Z,87.283333
2023-05-17T22:05:17.568Z,87.245833
2023-05-17T22:10:17.692Z,87.833333
2023-05-17T22:15:17.731Z,88.141667
2023-05-17T22:20:17.429Z,88.262500
2023-05-17T22:25:17.886Z,88.233333
2023-05-17T22:30:17.776Z,88.445833
2023-05-17T22:35:17.213Z,88.695833
2023-05-17T22:40:17.307Z,88.533333
2023-05-17T22:45:17.539Z,88.808000
2023-05-17T22:50:17.434Z,88.875000
2023-05-17T22:55:17.455Z,89.016667
2023-05-17T23:00:17.365Z,89.250000
2023-05-17T23:05:17.328Z,89.087500
2023-05-17T23:10:17.621Z,89.216667
2023-05-17T23:15:17.275Z,89.260000
2023-05-17T23:20:17.281Z,89.279167
2023-05-17T23:25:17.625Z,89.333333
2023-05-17T23:30:17.388Z,89.456000
2023-05-17T23:35:17.460Z,89.616667
2023-05-17T23:40:17.392Z,89.666667
2023-05-17T23:45:17.978Z,90.004167
2023-05-17T23:50:17.828Z,89.683333
2023-05-17T23:55:17.691Z,89.820833
